JST780 YMML-YPAD
Flight info
| Callsign | JST780 |
|---|---|
| Flight time | N/A |
| Altitude | 36000 |
| Route | PEDNI1/27 PEDNI H345 AD |
| Aircraft | A320/M-SDE3FGHIRWY/LB1 |
Departure
| Time | 2026-05-06 11:31 |
|---|---|
| Airport | Melbourne Airport (YMML) |
Arrival
| Time | N/A |
|---|---|
| Airport | Adelaide International Airport (YPAD) |
| Time | Latitude | Longitude | Altitude | Speed | Heading |
|---|---|---|---|---|---|
| 2026-05-06 11:28 | -37.66486 | 144.84780 | 405 ft | 6 kts | 348° |
| 2026-05-06 11:29 | -37.66460 | 144.84776 | 409 ft | 2 kts | 359° |
| 2026-05-06 11:29 | -37.66457 | 144.84776 | 409 ft | 0 kts | 359° |
| 2026-05-06 11:29 | -37.66450 | 144.84776 | 407 ft | 5 kts | 1° |
| 2026-05-06 11:30 | -37.66425 | 144.84778 | 410 ft | 3 kts | 4° |
| 2026-05-06 11:30 | -37.66383 | 144.84782 | 411 ft | 10 kts | 4° |
| 2026-05-06 11:30 | -37.66291 | 144.84790 | 413 ft | 15 kts | 1° |
| 2026-05-06 11:30 | -37.66221 | 144.84730 | 411 ft | 13 kts | 279° |
| 2026-05-06 11:31 | -37.66202 | 144.84389 | 410 ft | 72 kts | 274° |
| 2026-05-06 11:31 | -37.66153 | 144.83513 | 414 ft | 125 kts | 274° |
| 2026-05-06 11:31 | -37.66083 | 144.82340 | 777 ft | 139 kts | 270° |
| 2026-05-06 11:31 | -37.66013 | 144.81125 | 1489 ft | 139 kts | 269° |
| 2026-05-06 11:32 | -37.65947 | 144.79889 | 2198 ft | 142 kts | 269° |
| 2026-05-06 11:32 | -37.65873 | 144.78596 | 2648 ft | 158 kts | 269° |
| 2026-05-06 11:32 | -37.65794 | 144.77120 | 2970 ft | 180 kts | 269° |
| 2026-05-06 11:32 | -37.65702 | 144.75439 | 3345 ft | 204 kts | 270° |
| 2026-05-06 11:33 | -37.65593 | 144.73550 | 3789 ft | 227 kts | 270° |
| 2026-05-06 11:33 | -37.65471 | 144.71480 | 4374 ft | 248 kts | 271° |
| 2026-05-06 11:33 | -37.65338 | 144.69263 | 5027 ft | 264 kts | 271° |
| 2026-05-06 11:33 | -37.65194 | 144.66934 | 5945 ft | 268 kts | 273° |
| 2026-05-06 11:34 | -37.64800 | 144.64609 | 6873 ft | 274 kts | 287° |
| 2026-05-06 11:34 | -37.64079 | 144.62367 | 7805 ft | 276 kts | 290° |
| 2026-05-06 11:34 | -37.63346 | 144.60120 | 8728 ft | 278 kts | 291° |
| 2026-05-06 11:34 | -37.62613 | 144.57853 | 9652 ft | 280 kts | 291° |
| 2026-05-06 11:35 | -37.61879 | 144.55566 | 10506 ft | 282 kts | 291° |
| 2026-05-06 11:35 | -37.61142 | 144.53276 | 11372 ft | 282 kts | 291° |
| 2026-05-06 11:35 | -37.60409 | 144.50994 | 12291 ft | 280 kts | 291° |
| 2026-05-06 11:35 | -37.59668 | 144.48689 | 13232 ft | 278 kts | 290° |
| 2026-05-06 11:36 | -37.58944 | 144.46440 | 14187 ft | 276 kts | 289° |
| 2026-05-06 11:36 | -37.58220 | 144.44199 | 14979 ft | 276 kts | 290° |
| 2026-05-06 11:36 | -37.57495 | 144.41954 | 15682 ft | 278 kts | 290° |
| 2026-05-06 11:36 | -37.56761 | 144.39680 | 16370 ft | 281 kts | 290° |
| 2026-05-06 11:37 | -37.56020 | 144.37388 | 17054 ft | 284 kts | 291° |
| 2026-05-06 11:37 | -37.55273 | 144.35075 | 17741 ft | 287 kts | 291° |
| 2026-05-06 11:37 | -37.54516 | 144.32740 | 18453 ft | 289 kts | 291° |
| 2026-05-06 11:37 | -37.53752 | 144.30382 | 19068 ft | 292 kts | 291° |
| 2026-05-06 11:38 | -37.53230 | 144.28774 | 19498 ft | 294 kts | 291° |
| 2026-05-06 11:38 | -37.52198 | 144.25609 | 20360 ft | 297 kts | 291° |
| 2026-05-06 11:38 | -37.51413 | 144.23197 | 20991 ft | 299 kts | 290° |
| 2026-05-06 11:38 | -37.50625 | 144.20765 | 21621 ft | 301 kts | 290° |
| 2026-05-06 11:39 | -37.49832 | 144.18319 | 22235 ft | 303 kts | 290° |
| 2026-05-06 11:39 | -37.49019 | 144.15820 | 22847 ft | 306 kts | 290° |
| 2026-05-06 11:39 | -37.48209 | 144.13336 | 23484 ft | 308 kts | 290° |
| 2026-05-06 11:39 | -37.47393 | 144.10833 | 24025 ft | 310 kts | 290° |
| 2026-05-06 11:40 | -37.46573 | 144.08314 | 24503 ft | 313 kts | 290° |
| 2026-05-06 11:40 | -37.45740 | 144.05764 | 24955 ft | 316 kts | 290° |
| 2026-05-06 11:40 | -37.44898 | 144.03199 | 25425 ft | 319 kts | 290° |
| 2026-05-06 11:40 | -37.44047 | 144.00607 | 25859 ft | 322 kts | 290° |
| 2026-05-06 11:41 | -37.43183 | 143.97989 | 26299 ft | 325 kts | 291° |
| 2026-05-06 11:41 | -37.42302 | 143.95317 | 26740 ft | 328 kts | 291° |
| 2026-05-06 11:41 | -37.41425 | 143.92657 | 27172 ft | 331 kts | 291° |
| 2026-05-06 11:41 | -37.40539 | 143.89968 | 27593 ft | 334 kts | 291° |
| 2026-05-06 11:42 | -37.39650 | 143.87261 | 28001 ft | 337 kts | 291° |
| 2026-05-06 11:42 | -37.38751 | 143.84524 | 28418 ft | 340 kts | 291° |
| 2026-05-06 11:42 | -37.37846 | 143.81763 | 28822 ft | 343 kts | 291° |
| 2026-05-06 11:42 | -37.37539 | 143.80826 | 28959 ft | 344 kts | 291° |
| 2026-05-06 11:43 | -37.36071 | 143.76374 | 29591 ft | 348 kts | 291° |
| 2026-05-06 11:43 | -37.35137 | 143.73554 | 29956 ft | 351 kts | 291° |
| 2026-05-06 11:43 | -37.34195 | 143.70710 | 30327 ft | 354 kts | 291° |
| 2026-05-06 11:44 | -37.32289 | 143.64955 | 30992 ft | 359 kts | 291° |
| 2026-05-06 11:44 | -37.31324 | 143.62046 | 31326 ft | 361 kts | 291° |
| 2026-05-06 11:44 | -37.30354 | 143.59120 | 31692 ft | 365 kts | 291° |
| 2026-05-06 11:44 | -37.29375 | 143.56167 | 32039 ft | 367 kts | 291° |
| 2026-05-06 11:45 | -37.28712 | 143.54174 | 32326 ft | 366 kts | 292° |
| 2026-05-06 11:45 | -37.27410 | 143.50273 | 32952 ft | 365 kts | 292° |
| 2026-05-06 11:45 | -37.26418 | 143.47299 | 33334 ft | 366 kts | 291° |
| 2026-05-06 11:45 | -37.25432 | 143.44350 | 33711 ft | 367 kts | 292° |
| 2026-05-06 11:46 | -37.24442 | 143.41392 | 34150 ft | 367 kts | 292° |
| 2026-05-06 11:46 | -37.23452 | 143.38441 | 34522 ft | 367 kts | 292° |
| 2026-05-06 11:46 | -37.22461 | 143.35492 | 34850 ft | 368 kts | 292° |
| 2026-05-06 11:46 | -37.21464 | 143.32530 | 35168 ft | 369 kts | 292° |
| 2026-05-06 11:47 | -37.20466 | 143.29564 | 35472 ft | 370 kts | 291° |
| 2026-05-06 11:47 | -37.19804 | 143.27595 | 35676 ft | 370 kts | 291° |
| 2026-05-06 11:47 | -37.18506 | 143.23593 | 36061 ft | 371 kts | 289° |
| 2026-05-06 11:47 | -37.17581 | 143.20556 | 36184 ft | 373 kts | 289° |
| 2026-05-06 11:48 | -37.15782 | 143.14501 | 36209 ft | 369 kts | 289° |
| 2026-05-06 11:48 | -37.13978 | 143.08476 | 36206 ft | 369 kts | 289° |
| 2026-05-06 11:49 | -37.12142 | 143.02463 | 36215 ft | 369 kts | 289° |
| 2026-05-06 11:49 | -37.10290 | 142.96465 | 36219 ft | 370 kts | 289° |
| 2026-05-06 11:50 | -37.08434 | 142.90449 | 36218 ft | 370 kts | 289° |
| 2026-05-06 11:50 | -37.06576 | 142.84424 | 36228 ft | 371 kts | 289° |
| 2026-05-06 11:51 | -37.05020 | 142.79381 | 36232 ft | 371 kts | 289° |
| 2026-05-06 11:51 | -37.03157 | 142.73351 | 36220 ft | 371 kts | 288° |
| 2026-05-06 11:52 | -37.01289 | 142.67320 | 36227 ft | 372 kts | 288° |
| 2026-05-06 11:52 | -36.99415 | 142.61286 | 36231 ft | 372 kts | 288° |
| 2026-05-06 11:53 | -36.97529 | 142.55251 | 36231 ft | 373 kts | 288° |
| 2026-05-06 11:53 | -36.95636 | 142.49205 | 36205 ft | 373 kts | 288° |
| 2026-05-06 11:54 | -36.93743 | 142.43157 | 36219 ft | 374 kts | 288° |
| 2026-05-06 11:54 | -36.91886 | 142.37237 | 36233 ft | 374 kts | 288° |
| 2026-05-06 11:55 | -36.89988 | 142.31174 | 36241 ft | 375 kts | 288° |
| 2026-05-06 11:55 | -36.88071 | 142.25078 | 36236 ft | 375 kts | 287° |
| 2026-05-06 11:56 | -36.86162 | 142.19010 | 36238 ft | 375 kts | 287° |
| 2026-05-06 11:56 | -36.84248 | 142.12948 | 36249 ft | 376 kts | 287° |
| 2026-05-06 11:57 | -36.82323 | 142.06882 | 36254 ft | 376 kts | 287° |
| 2026-05-06 11:57 | -36.80430 | 142.00930 | 36245 ft | 376 kts | 287° |
| 2026-05-06 11:58 | -36.78502 | 141.94864 | 36257 ft | 376 kts | 287° |
| 2026-05-06 11:58 | -36.76567 | 141.88796 | 36270 ft | 376 kts | 287° |
| 2026-05-06 11:59 | -36.74634 | 141.82731 | 36274 ft | 376 kts | 287° |
| 2026-05-06 11:59 | -36.72715 | 141.76717 | 36254 ft | 377 kts | 286° |
| 2026-05-06 12:00 | -36.70763 | 141.70659 | 36267 ft | 377 kts | 286° |
| 2026-05-06 12:00 | -36.68815 | 141.64606 | 36276 ft | 376 kts | 286° |
| 2026-05-06 12:01 | -36.66871 | 141.58554 | 36283 ft | 376 kts | 286° |
| 2026-05-06 12:01 | -36.64913 | 141.52498 | 36292 ft | 376 kts | 286° |
| 2026-05-06 12:02 | -36.62941 | 141.46412 | 36293 ft | 377 kts | 286° |
| 2026-05-06 12:02 | -36.60985 | 141.40374 | 36293 ft | 376 kts | 286° |
| 2026-05-06 12:03 | -36.59031 | 141.34327 | 36284 ft | 376 kts | 286° |
| 2026-05-06 12:03 | -36.57069 | 141.28291 | 36286 ft | 376 kts | 286° |
| 2026-05-06 12:04 | -36.55102 | 141.22264 | 36297 ft | 376 kts | 286° |
| 2026-05-06 12:04 | -36.53128 | 141.16247 | 36300 ft | 376 kts | 286° |
| 2026-05-06 12:05 | -36.51159 | 141.10234 | 36275 ft | 376 kts | 286° |
| 2026-05-06 12:05 | -36.49186 | 141.04216 | 36293 ft | 376 kts | 286° |
| 2026-05-06 12:06 | -36.47206 | 140.98210 | 36305 ft | 376 kts | 286° |
| 2026-05-06 12:06 | -36.45232 | 140.92200 | 36313 ft | 376 kts | 286° |
| 2026-05-06 12:07 | -36.43258 | 140.86196 | 36286 ft | 375 kts | 286° |
| 2026-05-06 12:07 | -36.41280 | 140.80200 | 36297 ft | 375 kts | 286° |
| 2026-05-06 12:08 | -36.39159 | 140.74251 | 36308 ft | 382 kts | 294° |
| 2026-05-06 12:08 | -36.35941 | 140.68894 | 36316 ft | 389 kts | 300° |
| 2026-05-06 12:09 | -36.32600 | 140.63629 | 36294 ft | 388 kts | 300° |
| 2026-05-06 12:09 | -36.29263 | 140.58356 | 36302 ft | 389 kts | 300° |
| 2026-05-06 12:10 | -36.25896 | 140.53051 | 36301 ft | 389 kts | 300° |
| 2026-05-06 12:10 | -36.22548 | 140.47778 | 36318 ft | 389 kts | 300° |
| 2026-05-06 12:11 | -36.19760 | 140.43396 | 36320 ft | 390 kts | 300° |
| 2026-05-06 12:11 | -36.15829 | 140.37239 | 36191 ft | 392 kts | 300° |
| 2026-05-06 12:12 | -36.14146 | 140.34603 | 35941 ft | 389 kts | 300° |
| 2026-05-06 12:12 | -36.12472 | 140.31983 | 35698 ft | 388 kts | 300° |
| 2026-05-06 12:12 | -36.10802 | 140.29372 | 35453 ft | 386 kts | 299° |
| 2026-05-06 12:12 | -36.09137 | 140.26776 | 35211 ft | 385 kts | 299° |
| 2026-05-06 12:13 | -36.07478 | 140.24186 | 34973 ft | 383 kts | 299° |
| 2026-05-06 12:13 | -36.05829 | 140.21612 | 34737 ft | 381 kts | 298° |
| 2026-05-06 12:13 | -36.04186 | 140.19051 | 34455 ft | 380 kts | 298° |
| 2026-05-06 12:13 | -36.02543 | 140.16488 | 34197 ft | 380 kts | 298° |
| 2026-05-06 12:14 | -36.00905 | 140.13932 | 33946 ft | 379 kts | 298° |
| 2026-05-06 12:14 | -35.99267 | 140.11384 | 33625 ft | 378 kts | 299° |
| 2026-05-06 12:14 | -35.97635 | 140.08845 | 33351 ft | 377 kts | 299° |
| 2026-05-06 12:14 | -35.96009 | 140.06315 | 33081 ft | 376 kts | 299° |
| 2026-05-06 12:15 | -35.94393 | 140.03809 | 32744 ft | 371 kts | 299° |
| 2026-05-06 12:15 | -35.93329 | 140.02162 | 32451 ft | 369 kts | 299° |
| 2026-05-06 12:15 | -35.91200 | 139.98862 | 31872 ft | 366 kts | 299° |
| 2026-05-06 12:15 | -35.89622 | 139.96414 | 31412 ft | 364 kts | 299° |
| 2026-05-06 12:16 | -35.88050 | 139.93975 | 31029 ft | 362 kts | 300° |
| 2026-05-06 12:16 | -35.86486 | 139.91549 | 30627 ft | 361 kts | 300° |
| 2026-05-06 12:16 | -35.84924 | 139.89126 | 30183 ft | 361 kts | 300° |
| 2026-05-06 12:16 | -35.83365 | 139.86715 | 29784 ft | 359 kts | 300° |
| 2026-05-06 12:17 | -35.81810 | 139.84322 | 29393 ft | 357 kts | 300° |
| 2026-05-06 12:17 | -35.80264 | 139.81950 | 29014 ft | 354 kts | 300° |
| 2026-05-06 12:17 | -35.78725 | 139.79592 | 28641 ft | 352 kts | 299° |
| 2026-05-06 12:17 | -35.77200 | 139.77250 | 28273 ft | 349 kts | 299° |
| 2026-05-06 12:18 | -35.75688 | 139.74922 | 27887 ft | 347 kts | 299° |
| 2026-05-06 12:18 | -35.74173 | 139.72584 | 27498 ft | 343 kts | 299° |
| 2026-05-06 12:18 | -35.72689 | 139.70297 | 27127 ft | 341 kts | 299° |
| 2026-05-06 12:18 | -35.71215 | 139.68029 | 26736 ft | 339 kts | 299° |
| 2026-05-06 12:19 | -35.69746 | 139.65776 | 26352 ft | 337 kts | 299° |
| 2026-05-06 12:19 | -35.68284 | 139.63534 | 25950 ft | 335 kts | 299° |
| 2026-05-06 12:19 | -35.66829 | 139.61300 | 25548 ft | 334 kts | 299° |
| 2026-05-06 12:19 | -35.65376 | 139.59069 | 25151 ft | 333 kts | 299° |
| 2026-05-06 12:20 | -35.63927 | 139.56843 | 24734 ft | 333 kts | 299° |
| 2026-05-06 12:20 | -35.62480 | 139.54624 | 24323 ft | 333 kts | 298° |
| 2026-05-06 12:20 | -35.61030 | 139.52405 | 23884 ft | 333 kts | 298° |
| 2026-05-06 12:20 | -35.59583 | 139.50194 | 23446 ft | 331 kts | 299° |
| 2026-05-06 12:21 | -35.58142 | 139.47996 | 23023 ft | 329 kts | 299° |
| 2026-05-06 12:21 | -35.56710 | 139.45816 | 22618 ft | 328 kts | 298° |
| 2026-05-06 12:21 | -35.55742 | 139.44343 | 22338 ft | 327 kts | 298° |
| 2026-05-06 12:21 | -35.53864 | 139.41476 | 21802 ft | 325 kts | 298° |
| 2026-05-06 12:22 | -35.52450 | 139.39320 | 21382 ft | 324 kts | 298° |
| 2026-05-06 12:22 | -35.51038 | 139.37168 | 20984 ft | 324 kts | 298° |
| 2026-05-06 12:22 | -35.49626 | 139.35020 | 20570 ft | 323 kts | 298° |
| 2026-05-06 12:22 | -35.48673 | 139.33573 | 20284 ft | 322 kts | 298° |
| 2026-05-06 12:23 | -35.47267 | 139.31437 | 19892 ft | 321 kts | 298° |
| 2026-05-06 12:23 | -35.45866 | 139.29306 | 19485 ft | 321 kts | 298° |
| 2026-05-06 12:23 | -35.44463 | 139.27172 | 19086 ft | 321 kts | 298° |
| 2026-05-06 12:23 | -35.43050 | 139.25099 | 18679 ft | 327 kts | 304° |
| 2026-05-06 12:24 | -35.41244 | 139.23312 | 18215 ft | 342 kts | 319° |
| 2026-05-06 12:24 | -35.39046 | 139.22070 | 17772 ft | 352 kts | 330° |
| 2026-05-06 12:24 | -35.36751 | 139.21019 | 17324 ft | 352 kts | 330° |
| 2026-05-06 12:24 | -35.34462 | 139.19969 | 16881 ft | 351 kts | 330° |
| 2026-05-06 12:25 | -35.32173 | 139.18913 | 16432 ft | 351 kts | 330° |
| 2026-05-06 12:25 | -35.29892 | 139.17858 | 15993 ft | 350 kts | 330° |
| 2026-05-06 12:25 | -35.27619 | 139.16807 | 15557 ft | 349 kts | 330° |
| 2026-05-06 12:25 | -35.25349 | 139.15756 | 15117 ft | 348 kts | 331° |
| 2026-05-06 12:26 | -35.23091 | 139.14709 | 14681 ft | 347 kts | 331° |
| 2026-05-06 12:26 | -35.20836 | 139.13666 | 14229 ft | 346 kts | 331° |
| 2026-05-06 12:26 | -35.18595 | 139.12631 | 13809 ft | 342 kts | 332° |
| 2026-05-06 12:26 | -35.16440 | 139.11636 | 13363 ft | 341 kts | 332° |
| 2026-05-06 12:27 | -35.14222 | 139.10611 | 12839 ft | 341 kts | 332° |
| 2026-05-06 12:27 | -35.12003 | 139.09587 | 12307 ft | 339 kts | 332° |
| 2026-05-06 12:27 | -35.09835 | 139.08590 | 11794 ft | 327 kts | 332° |
| 2026-05-06 12:27 | -35.07749 | 139.07559 | 11302 ft | 311 kts | 325° |
| 2026-05-06 12:28 | -35.05990 | 139.06170 | 10810 ft | 293 kts | 313° |
| 2026-05-06 12:28 | -35.04507 | 139.04523 | 10335 ft | 288 kts | 309° |
| 2026-05-06 12:28 | -35.03048 | 139.02875 | 9816 ft | 284 kts | 310° |
| 2026-05-06 12:28 | -35.01580 | 139.01224 | 9303 ft | 290 kts | 310° |
| 2026-05-06 12:29 | -35.00081 | 138.99539 | 8801 ft | 295 kts | 310° |
| 2026-05-06 12:29 | -34.98569 | 138.97843 | 8347 ft | 296 kts | 310° |
| 2026-05-06 12:29 | -34.97055 | 138.96145 | 7900 ft | 297 kts | 310° |
| 2026-05-06 12:29 | -34.95529 | 138.94437 | 7451 ft | 298 kts | 310° |
| 2026-05-06 12:30 | -34.94009 | 138.92739 | 7078 ft | 292 kts | 310° |
| 2026-05-06 12:30 | -34.92541 | 138.91109 | 6738 ft | 282 kts | 310° |
| 2026-05-06 12:30 | -34.91102 | 138.89504 | 6370 ft | 279 kts | 310° |
| 2026-05-06 12:30 | -34.89681 | 138.87915 | 6006 ft | 274 kts | 311° |
| 2026-05-06 12:31 | -34.88300 | 138.86382 | 5636 ft | 264 kts | 311° |
| 2026-05-06 12:31 | -34.86953 | 138.84880 | 5366 ft | 261 kts | 312° |
| 2026-05-06 12:31 | -34.85625 | 138.83394 | 5111 ft | 258 kts | 312° |
| 2026-05-06 12:31 | -34.84312 | 138.81929 | 4806 ft | 256 kts | 313° |
| 2026-05-06 12:32 | -34.82989 | 138.80454 | 4294 ft | 256 kts | 313° |
| 2026-05-06 12:32 | -34.81685 | 138.79006 | 3888 ft | 250 kts | 313° |
| 2026-05-06 12:32 | -34.80608 | 138.77466 | 3805 ft | 228 kts | 289° |
| 2026-05-06 12:32 | -34.80253 | 138.75716 | 3811 ft | 206 kts | 262° |
| 2026-05-06 12:33 | -34.80546 | 138.74089 | 3816 ft | 192 kts | 237° |
| 2026-05-06 12:33 | -34.81310 | 138.72821 | 3812 ft | 183 kts | 225° |
| 2026-05-06 12:33 | -34.82135 | 138.71630 | 3683 ft | 179 kts | 225° |
| 2026-05-06 12:33 | -34.82920 | 138.70495 | 3486 ft | 173 kts | 224° |
| 2026-05-06 12:34 | -34.83680 | 138.69393 | 3241 ft | 166 kts | 224° |
| 2026-05-06 12:34 | -34.84391 | 138.68360 | 3015 ft | 154 kts | 224° |